createdAt,value
2018-07-16T00:04:08.876Z,70.50
2018-07-16T00:06:38.248Z,70.50
2018-07-16T00:09:07.527Z,70.90
2018-07-16T00:11:36.801Z,71.30
2018-07-16T00:14:06.145Z,71.30
2018-07-16T00:16:35.450Z,71.60
2018-07-16T00:19:04.804Z,71.70
2018-07-16T00:21:34.137Z,71.60
2018-07-16T00:24:03.454Z,72.40
2018-07-16T00:29:01.571Z,72.30
2018-07-16T00:31:30.810Z,73.20
2018-07-16T00:34:00.083Z,73.20
2018-07-16T00:36:29.447Z,72.90
2018-07-16T00:41:27.470Z,73.50
2018-07-16T00:43:56.774Z,73.80
2018-07-16T00:46:26.024Z,73.50
2018-07-16T00:48:55.315Z,73.70
2018-07-16T00:51:24.648Z,74.10
2018-07-16T00:53:54.320Z,74.10
2018-07-16T00:56:23.721Z,74.80
2018-07-16T00:58:53.155Z,74.50
2018-07-16T01:03:51.166Z,75.30
2018-07-16T01:06:20.509Z,74.00
2018-07-16T01:08:49.798Z,74.90
2018-07-16T01:11:19.208Z,75.20
2018-07-16T01:13:48.590Z,75.10
2018-07-16T01:16:17.930Z,75.30
2018-07-16T01:21:16.140Z,75.90
2018-07-16T01:26:15.410Z,74.80
2018-07-16T01:28:44.904Z,75.30
2018-07-16T01:31:14.210Z,75.40
2018-07-16T01:33:43.512Z,75.50
2018-07-16T01:36:12.887Z,75.80
2018-07-16T01:38:42.238Z,75.50
2018-07-16T01:41:11.565Z,75.80
2018-07-16T01:46:09.865Z,76.40
2018-07-16T01:48:39.186Z,76.70
2018-07-16T01:51:08.571Z,76.40
2018-07-16T01:53:37.910Z,76.80
2018-07-16T01:56:07.205Z,76.40
2018-07-16T01:58:36.543Z,76.50
2018-07-16T02:01:05.873Z,76.30
2018-07-16T02:03:35.500Z,76.50
2018-07-16T02:06:04.826Z,76.30
2018-07-16T02:08:34.131Z,76.40
2018-07-16T02:11:03.492Z,76.40
2018-07-16T02:13:32.791Z,76.80
2018-07-16T02:16:02.093Z,76.20
2018-07-16T02:18:31.376Z,77.40
2018-07-16T02:23:29.493Z,77.10
2018-07-16T02:25:58.804Z,76.50
2018-07-16T02:28:28.153Z,76.70
2018-07-16T02:35:55.047Z,76.90
2018-07-16T02:38:24.336Z,77.50
2018-07-16T02:40:53.652Z,77.80
2018-07-16T02:43:22.968Z,78.30
2018-07-16T02:45:52.345Z,77.50
2018-07-16T02:50:50.378Z,77.40
2018-07-16T02:53:19.685Z,76.90
2018-07-16T02:55:48.963Z,77.50
2018-07-16T02:58:18.357Z,77.40
2018-07-16T03:00:48.560Z,77.90
2018-07-16T03:03:18.059Z,78.70
2018-07-16T03:05:47.475Z,78.30
2018-07-16T03:08:16.866Z,78.60
2018-07-16T03:10:47.187Z,79.20
2018-07-16T03:15:46.353Z,79.60
2018-07-16T03:18:16.265Z,80.00
2018-07-16T03:20:46.373Z,80.20
2018-07-16T03:23:16.312Z,79.90
2018-07-16T03:25:45.758Z,79.70
2018-07-16T03:28:15.104Z,79.60
2018-07-16T03:30:44.386Z,79.40
2018-07-16T03:33:13.680Z,79.20
2018-07-16T03:35:43.105Z,80.00
2018-07-16T03:38:12.394Z,80.10
2018-07-16T03:40:41.700Z,79.60
2018-07-16T03:43:11.104Z,79.70
2018-07-16T03:45:40.426Z,80.20
2018-07-16T03:48:09.832Z,80.10
2018-07-16T03:50:39.071Z,79.50
2018-07-16T03:53:08.353Z,79.10
2018-07-16T03:55:37.679Z,79.50
2018-07-16T03:58:07.005Z,79.80
2018-07-16T04:00:36.284Z,79.20
2018-07-16T04:03:05.683Z,79.60
2018-07-16T04:05:34.952Z,79.50
2018-07-16T04:08:04.213Z,80.00
2018-07-16T04:10:33.496Z,79.50
2018-07-16T04:13:02.816Z,80.30
2018-07-16T04:15:32.151Z,79.60
2018-07-16T04:20:30.327Z,80.90
2018-07-16T04:22:59.706Z,79.80
2018-07-16T04:25:29.060Z,80.20
2018-07-16T04:30:27.082Z,80.20
2018-07-16T04:32:56.390Z,80.70
2018-07-16T04:35:25.740Z,81.10
2018-07-16T04:42:52.713Z,81.50
2018-07-16T04:45:22.089Z,81.50
2018-07-16T04:47:51.738Z,81.20
2018-07-16T04:50:21.129Z,81.30
2018-07-16T04:52:50.648Z,81.50
2018-07-16T04:55:20.035Z,81.50
2018-07-16T05:00:18.279Z,81.90
2018-07-16T05:02:47.573Z,82.20
2018-07-16T05:05:16.873Z,82.50
2018-07-16T05:07:46.255Z,82.40
2018-07-16T05:10:15.580Z,82.10
2018-07-16T05:12:44.941Z,82.70
2018-07-16T05:15:14.262Z,82.60
2018-07-16T05:17:43.577Z,82.80
2018-07-16T05:20:12.867Z,82.60
2018-07-16T05:22:42.184Z,82.90
2018-07-16T05:25:11.566Z,83.10
2018-07-16T05:27:41.098Z,83.40
2018-07-16T05:30:10.462Z,83.80
2018-07-16T05:32:40.140Z,84.20
2018-07-16T05:35:09.222Z,84.30
2018-07-16T05:37:38.698Z,84.30
2018-07-16T05:40:08.072Z,84.50
2018-07-16T05:42:37.383Z,84.60
2018-07-16T05:45:06.766Z,84.70
2018-07-16T05:47:36.088Z,84.70
2018-07-16T05:50:05.411Z,84.90
2018-07-16T05:52:34.773Z,84.80
2018-07-16T05:55:04.155Z,84.90
2018-07-16T05:57:33.470Z,84.70
2018-07-16T06:00:02.784Z,84.60
2018-07-16T06:02:32.176Z,84.70
2018-07-16T06:05:01.517Z,84.90
2018-07-16T06:07:30.856Z,84.90
2018-07-16T06:10:00.333Z,85.00
2018-07-16T06:12:29.720Z,85.00
2018-07-16T06:14:59.019Z,84.40
2018-07-16T06:17:29.423Z,84.40
2018-07-16T06:19:58.801Z,84.60
2018-07-16T06:22:28.847Z,84.50
2018-07-16T06:24:58.230Z,84.30
2018-07-16T06:27:28.188Z,84.30
2018-07-16T06:29:57.585Z,84.70
2018-07-16T06:32:27.991Z,84.60
2018-07-16T06:34:57.674Z,84.80
2018-07-16T06:37:27.237Z,84.80
2018-07-16T06:39:56.763Z,84.80
2018-07-16T06:42:27.151Z,85.00
2018-07-16T06:44:56.665Z,85.10
2018-07-16T06:47:26.080Z,85.30
2018-07-16T06:52:24.585Z,85.70
2018-07-16T06:54:53.880Z,85.60
2018-07-16T06:57:23.249Z,85.70
2018-07-16T06:59:52.640Z,85.80
2018-07-16T07:02:22.053Z,85.80
2018-07-16T07:04:51.323Z,85.90
2018-07-16T07:07:20.748Z,85.80
2018-07-16T07:09:50.042Z,85.80
2018-07-16T07:12:19.378Z,85.80
2018-07-16T07:14:48.844Z,85.80
2018-07-16T07:17:18.167Z,85.50
2018-07-16T07:19:47.551Z,85.30
2018-07-16T07:22:16.862Z,85.00
2018-07-16T07:24:46.183Z,84.80
2018-07-16T07:27:15.878Z,84.90
2018-07-16T07:29:45.232Z,85.10
2018-07-16T07:32:14.550Z,84.90
2018-07-16T07:34:43.838Z,85.10
2018-07-16T07:37:13.265Z,85.80
2018-07-16T07:39:42.553Z,84.90
2018-07-16T07:42:11.970Z,85.10
2018-07-16T07:44:41.285Z,85.40
2018-07-16T07:47:10.598Z,85.60
2018-07-16T07:49:39.858Z,85.70
2018-07-16T07:52:09.153Z,85.40
2018-07-16T07:54:38.587Z,85.50
2018-07-16T07:57:07.853Z,85.70
2018-07-16T07:59:37.152Z,85.70
2018-07-16T08:02:06.550Z,85.50
2018-07-16T08:07:09.764Z,84.80
2018-07-16T08:09:39.196Z,84.50
2018-07-16T08:12:09.344Z,84.40
2018-07-16T08:19:36.314Z,86.00
2018-07-16T08:22:05.741Z,86.20
2018-07-16T08:27:03.878Z,86.20
2018-07-16T08:29:33.143Z,86.80
2018-07-16T08:32:02.476Z,87.40
2018-07-16T08:34:31.796Z,87.70
2018-07-16T08:37:01.125Z,88.20
2018-07-16T08:39:30.496Z,87.80
2018-07-16T08:41:59.912Z,88.50
2018-07-16T08:44:29.309Z,88.80
2018-07-16T08:46:58.796Z,89.00
2018-07-16T08:49:28.102Z,89.40
2018-07-16T08:51:57.385Z,90.10
2018-07-16T08:54:26.704Z,90.20
2018-07-16T08:56:55.996Z,90.40
2018-07-16T08:59:25.373Z,90.10
2018-07-16T09:01:54.780Z,90.00
2018-07-16T09:04:24.094Z,89.40
2018-07-16T09:06:53.413Z,88.40
2018-07-16T09:09:23.113Z,87.90
2018-07-16T09:11:52.387Z,88.20
2018-07-16T09:14:22.182Z,88.70
2018-07-16T09:16:51.638Z,87.90
2018-07-16T09:21:49.894Z,86.40
2018-07-16T09:24:19.296Z,85.60
2018-07-16T09:26:48.581Z,85.20
2018-07-16T09:29:17.940Z,85.10
2018-07-16T09:31:47.275Z,84.60
2018-07-16T09:34:17.581Z,84.50
2018-07-16T09:36:46.879Z,85.10
2018-07-16T09:39:16.205Z,84.00
2018-07-16T09:44:14.361Z,81.90
2018-07-16T09:46:43.663Z,81.80
2018-07-16T09:49:13.010Z,80.40
2018-07-16T09:51:42.311Z,80.10
2018-07-16T09:54:11.671Z,79.20
2018-07-16T09:56:41.021Z,77.00
2018-07-16T09:59:10.424Z,75.10
2018-07-16T10:01:43.637Z,72.10
2018-07-16T10:04:13.880Z,72.10
2018-07-16T10:06:43.178Z,73.30
2018-07-16T10:09:12.557Z,73.40
2018-07-16T10:11:41.884Z,72.60
2018-07-16T10:14:11.152Z,73.60
2018-07-16T10:16:40.504Z,74.40
2018-07-16T10:19:09.952Z,76.70
2018-07-16T10:21:39.344Z,77.90
2018-07-16T10:24:08.785Z,79.50
2018-07-16T10:26:38.099Z,81.80
2018-07-16T10:29:07.492Z,84.10
2018-07-16T10:31:36.869Z,83.30
2018-07-16T10:34:06.288Z,84.10
2018-07-16T10:36:35.677Z,80.30
2018-07-16T10:39:05.795Z,83.80
2018-07-16T10:41:35.109Z,77.40
2018-07-16T10:44:04.466Z,75.40
2018-07-16T10:46:33.898Z,71.30
2018-07-16T10:49:03.199Z,63.50
2018-07-16T10:51:32.588Z,70.30
2018-07-16T10:54:01.921Z,69.80
2018-07-16T10:56:31.344Z,67.70
2018-07-16T10:59:00.706Z,65.00
2018-07-16T11:01:29.984Z,63.10
2018-07-16T11:03:59.265Z,59.70
2018-07-16T11:06:28.647Z,61.70
2018-07-16T11:08:57.963Z,63.60
2018-07-16T11:13:56.120Z,67.50
2018-07-16T11:16:25.429Z,68.50
2018-07-16T11:18:54.737Z,69.40
2018-07-16T11:21:24.340Z,73.40
2018-07-16T11:23:53.719Z,73.40
2018-07-16T11:26:23.120Z,74.60
2018-07-16T11:28:52.496Z,75.40
2018-07-16T11:31:21.868Z,76.40
2018-07-16T11:36:20.724Z,74.60
2018-07-16T11:38:50.049Z,74.60
2018-07-16T11:41:19.344Z,73.80
2018-07-16T11:43:48.632Z,72.60
2018-07-16T11:46:18.079Z,73.50
2018-07-16T11:48:47.389Z,70.40
2018-07-16T11:51:16.790Z,69.90
2018-07-16T11:53:46.108Z,67.40
2018-07-16T11:56:15.664Z,68.10
2018-07-16T11:58:45.029Z,60.90
2018-07-16T12:01:14.545Z,61.60
2018-07-16T12:03:43.849Z,64.40
2018-07-16T12:06:18.312Z,66.40
2018-07-16T12:13:45.329Z,70.90
2018-07-16T12:16:14.725Z,72.90
2018-07-16T12:18:44.017Z,73.70
2018-07-16T12:21:13.320Z,75.70
2018-07-16T12:23:42.715Z,76.40
2018-07-16T12:26:12.790Z,76.40
2018-07-16T12:28:42.116Z,76.20
2018-07-16T12:33:40.162Z,78.00
2018-07-16T12:36:09.464Z,78.00
2018-07-16T12:38:38.857Z,78.10
2018-07-16T12:41:08.229Z,77.70
2018-07-16T12:43:37.535Z,77.10
2018-07-16T12:46:06.872Z,78.00
2018-07-16T12:48:36.131Z,76.70
2018-07-16T12:51:05.453Z,76.40
2018-07-16T12:53:34.821Z,75.30
2018-07-16T12:58:32.896Z,74.80
2018-07-16T13:01:02.233Z,74.70
2018-07-16T13:03:31.562Z,75.50
2018-07-16T13:06:00.855Z,76.90
2018-07-16T13:08:30.221Z,73.50
2018-07-16T13:10:59.569Z,75.20
2018-07-16T13:13:28.819Z,73.00
2018-07-16T13:15:58.202Z,74.00
2018-07-16T13:18:27.610Z,72.00
2018-07-16T13:20:56.892Z,74.60
2018-07-16T13:23:26.312Z,77.20
2018-07-16T13:25:55.683Z,76.70
2018-07-16T13:28:25.031Z,78.30
2018-07-16T13:30:54.336Z,79.40
2018-07-16T13:33:23.817Z,80.70
2018-07-16T13:40:51.309Z,79.10
2018-07-16T13:43:21.502Z,78.20
2018-07-16T13:45:51.066Z,79.00
2018-07-16T13:48:20.514Z,78.70
2018-07-16T13:50:49.953Z,77.90
2018-07-16T13:55:48.108Z,77.30
2018-07-16T13:58:17.791Z,78.30
2018-07-16T14:00:47.421Z,79.80
2018-07-16T14:03:16.860Z,80.00
2018-07-16T14:08:14.974Z,81.30
2018-07-16T14:10:44.376Z,80.90
2018-07-16T14:13:13.752Z,80.90
2018-07-16T14:15:43.141Z,80.90
2018-07-16T14:18:12.540Z,80.70
2018-07-16T14:20:41.906Z,82.50
2018-07-16T14:23:11.211Z,82.60
2018-07-16T14:25:40.516Z,82.70
2018-07-16T14:28:09.914Z,82.40
2018-07-16T14:30:39.284Z,82.40
2018-07-16T14:33:08.576Z,82.60
2018-07-16T14:35:37.899Z,83.10
2018-07-16T14:38:07.287Z,84.10
2018-07-16T14:40:36.569Z,84.40
2018-07-16T14:43:05.981Z,84.90
2018-07-16T14:45:35.443Z,85.30
2018-07-16T14:48:04.755Z,85.80
2018-07-16T14:53:02.830Z,87.40
2018-07-16T14:55:32.243Z,88.80
2018-07-16T15:00:30.377Z,88.60
2018-07-16T15:02:59.695Z,88.80
2018-07-16T15:05:29.011Z,88.80
2018-07-16T15:07:58.304Z,89.80
2018-07-16T15:10:27.614Z,89.40
2018-07-16T15:12:56.998Z,89.30
2018-07-16T15:15:26.289Z,89.30
2018-07-16T15:17:55.649Z,89.80
2018-07-16T15:22:53.945Z,89.80
2018-07-16T15:25:23.286Z,89.10
2018-07-16T15:27:52.601Z,88.80
2018-07-16T15:30:21.912Z,89.60
2018-07-16T15:32:51.242Z,89.60
2018-07-16T15:37:49.565Z,88.20
2018-07-16T15:40:18.943Z,88.70
2018-07-16T15:45:16.990Z,88.50
2018-07-16T15:47:46.264Z,88.50
2018-07-16T15:50:15.634Z,89.10
2018-07-16T15:52:44.917Z,88.80
2018-07-16T15:57:42.951Z,89.10
2018-07-16T16:00:12.335Z,87.80
2018-07-16T16:02:41.665Z,88.30
2018-07-16T16:05:10.992Z,87.90
2018-07-16T16:07:40.278Z,88.50
2018-07-16T16:10:09.594Z,88.60
2018-07-16T16:12:38.912Z,88.30
2018-07-16T16:17:37.051Z,88.40
2018-07-16T16:20:06.386Z,88.70
2018-07-16T16:22:35.785Z,89.00
2018-07-16T16:25:05.168Z,89.50
2018-07-16T16:27:34.470Z,90.00
2018-07-16T16:30:04.028Z,89.50
2018-07-16T16:32:33.436Z,89.60
2018-07-16T16:35:02.755Z,89.70
2018-07-16T16:37:32.014Z,90.10
2018-07-16T16:40:01.499Z,89.60
2018-07-16T16:42:30.852Z,89.80
2018-07-16T16:45:00.282Z,90.00
2018-07-16T16:47:29.577Z,90.00
2018-07-16T16:49:58.914Z,90.10
2018-07-16T16:52:28.134Z,90.10
2018-07-16T16:54:57.482Z,90.20
2018-07-16T16:57:26.892Z,90.10
2018-07-16T16:59:56.329Z,90.30
2018-07-16T17:02:25.632Z,90.40
2018-07-16T17:07:23.741Z,90.90
2018-07-16T17:09:53.082Z,90.30
2018-07-16T17:12:22.367Z,90.40
2018-07-16T17:14:51.677Z,90.60
2018-07-16T17:17:20.945Z,90.40
2018-07-16T17:19:50.250Z,90.30
2018-07-16T17:22:19.581Z,90.40
2018-07-16T17:24:48.976Z,90.30
2018-07-16T17:27:18.286Z,90.20
2018-07-16T17:29:47.566Z,90.10
2018-07-16T17:32:16.867Z,90.20
2018-07-16T17:34:46.214Z,90.30
2018-07-16T17:39:44.284Z,90.30
2018-07-16T17:42:20.031Z,90.50
2018-07-16T17:44:49.425Z,90.80
2018-07-16T17:47:18.972Z,90.70
2018-07-16T17:52:17.100Z,91.20
2018-07-16T17:54:46.483Z,91.00
2018-07-16T17:57:15.755Z,91.10
2018-07-16T18:02:13.824Z,91.20
2018-07-16T18:04:43.072Z,91.30
2018-07-16T18:07:16.446Z,91.30
2018-07-16T18:09:46.391Z,91.30
2018-07-16T18:12:15.666Z,91.60
2018-07-16T18:14:45.080Z,91.70
2018-07-16T18:17:14.407Z,91.40
2018-07-16T18:19:43.685Z,91.40
2018-07-16T18:22:13.199Z,91.40
2018-07-16T18:24:42.607Z,91.70
2018-07-16T18:27:12.032Z,91.70
2018-07-16T18:29:41.348Z,91.70
2018-07-16T18:32:10.709Z,91.50
2018-07-16T18:34:40.008Z,91.60
2018-07-16T18:37:09.327Z,91.80
2018-07-16T18:39:38.669Z,91.70
2018-07-16T18:44:37.079Z,91.40
2018-07-16T18:47:06.380Z,91.40
2018-07-16T18:49:35.711Z,91.60
2018-07-16T18:52:05.079Z,91.50
2018-07-16T18:54:34.408Z,91.40
2018-07-16T18:57:03.790Z,91.70
2018-07-16T18:59:33.138Z,91.20
2018-07-16T19:02:02.551Z,91.20
2018-07-16T19:04:31.851Z,91.10
2018-07-16T19:07:05.849Z,91.00
2018-07-16T19:09:35.582Z,91.10
2018-07-16T19:12:05.090Z,91.10
2018-07-16T19:17:03.512Z,90.80
2018-07-16T19:19:33.023Z,90.70
2018-07-16T19:22:02.339Z,90.70
2018-07-16T19:24:31.683Z,90.80
2018-07-16T19:27:00.981Z,90.60
2018-07-16T19:29:30.337Z,90.50
2018-07-16T19:32:00.459Z,90.50
2018-07-16T19:34:29.821Z,90.50
2018-07-16T19:36:59.216Z,90.60
2018-07-16T19:41:57.245Z,91.10
2018-07-16T19:44:26.650Z,90.50
2018-07-16T19:46:55.969Z,89.30
2018-07-16T19:49:25.307Z,90.10
2018-07-16T19:51:54.715Z,90.40
2018-07-16T19:56:52.870Z,89.60
2018-07-16T19:59:22.548Z,89.50
2018-07-16T20:01:51.942Z,89.70
2018-07-16T20:04:21.344Z,90.00
2018-07-16T20:06:53.575Z,89.70
2018-07-16T20:09:23.035Z,89.90
2018-07-16T20:11:52.477Z,89.80
2018-07-16T20:14:21.876Z,89.30
2018-07-16T20:16:51.164Z,89.20
2018-07-16T20:19:20.640Z,89.20
2018-07-16T20:21:50.014Z,89.20
2018-07-16T20:24:19.408Z,88.70
2018-07-16T20:31:46.568Z,90.10
2018-07-16T20:34:15.867Z,90.30
2018-07-16T20:36:45.266Z,90.50
2018-07-16T20:39:14.615Z,90.70
2018-07-16T20:41:43.951Z,91.00
2018-07-16T20:44:13.549Z,91.20
2018-07-16T20:46:43.013Z,91.10
2018-07-16T20:49:12.296Z,91.40
2018-07-16T20:51:41.646Z,91.70
2018-07-16T20:54:11.086Z,91.80
2018-07-16T20:56:40.434Z,91.70
2018-07-16T20:59:09.797Z,91.80
2018-07-16T21:01:39.103Z,92.20
2018-07-16T21:04:08.516Z,92.50
2018-07-16T21:09:08.641Z,92.50
2018-07-16T21:11:38.410Z,92.50
2018-07-16T21:14:07.969Z,92.60
2018-07-16T21:19:06.226Z,92.70
2018-07-16T21:21:35.633Z,92.70
2018-07-16T21:24:05.856Z,92.80
2018-07-16T21:26:40.860Z,93.00
2018-07-16T21:29:10.246Z,93.00
2018-07-16T21:31:39.644Z,93.10
2018-07-16T21:34:09.039Z,93.00
2018-07-16T21:36:38.346Z,92.90
2018-07-16T21:39:08.306Z,92.90
2018-07-16T21:41:37.593Z,92.80
2018-07-16T21:44:06.988Z,92.80
2018-07-16T21:46:36.286Z,92.80
2018-07-16T21:49:05.686Z,92.60
2018-07-16T21:51:35.018Z,92.60
2018-07-16T21:54:04.307Z,92.60
2018-07-16T21:56:33.611Z,92.80
2018-07-16T21:59:02.908Z,92.50
2018-07-16T22:01:32.322Z,92.70
2018-07-16T22:04:01.597Z,92.70
2018-07-16T22:06:30.950Z,92.70
2018-07-16T22:11:29.358Z,92.90
2018-07-16T22:13:58.619Z,92.90
2018-07-16T22:16:28.031Z,92.90
2018-07-16T22:18:57.358Z,92.90
2018-07-16T22:21:26.668Z,92.70
2018-07-16T22:23:56.186Z,92.90
2018-07-16T22:26:25.534Z,92.90
2018-07-16T22:28:54.800Z,92.90
2018-07-16T22:31:24.111Z,92.90
2018-07-16T22:33:53.518Z,92.80
2018-07-16T22:36:22.832Z,92.80
2018-07-16T22:38:52.165Z,92.60
2018-07-16T22:41:21.508Z,92.50
2018-07-16T22:43:50.847Z,92.40
2018-07-16T22:46:20.192Z,92.30
2018-07-16T22:48:49.504Z,92.20
2018-07-16T22:51:18.837Z,92.30
2018-07-16T22:53:48.098Z,92.50
2018-07-16T22:56:17.373Z,92.30
2018-07-16T22:58:46.685Z,92.20
2018-07-16T23:01:16.075Z,92.20
2018-07-16T23:03:45.407Z,92.00
2018-07-16T23:06:14.691Z,92.00
2018-07-16T23:08:44.037Z,92.10
2018-07-16T23:11:13.386Z,92.00
2018-07-16T23:13:42.765Z,91.80
2018-07-16T23:18:40.859Z,92.30
2018-07-16T23:23:38.919Z,92.00
2018-07-16T23:26:08.210Z,91.90
2018-07-16T23:28:37.576Z,91.90
2018-07-16T23:31:06.858Z,91.90
2018-07-16T23:33:36.173Z,91.80
2018-07-16T23:36:05.502Z,91.80
2018-07-16T23:38:34.768Z,91.60
2018-07-16T23:41:04.156Z,91.60
2018-07-16T23:48:31.140Z,91.30
2018-07-16T23:51:00.559Z,91.40
2018-07-16T23:53:29.847Z,91.20
2018-07-16T23:55:59.216Z,91.30
2018-07-16T23:58:28.599Z,91.30
